Rogers Park, Illinois
Current Conditions -  °F | °C
As of 8:51 AM on Tuesday 21 Oct 2014 (Local Time) from KORD Reporting Station
Broken Clouds Broken Clouds  
Wind Chill: 41°   Ceiling: 4700
Heat Index: 47°   Visibility: 10mi
Dew Point: 39°   Wind: 13mph
Humidity: 74%   Direction: 350°N
Pressure: 30.14"   Gusts: NA
Location:  41.991°N, 87.6654°W
Report Text: KORD 211351Z 35011KT 10SM FEW021 BKN047 08/04 A3014 RMK AO2 SLP208 T00830039
Loading
Personal Weather Stations






























Interactive Weather Map New forecast layout! Learn more

10-Day Weather Forecast

Advertisements
Track Severe Weather on mobile